Aviation Digital Data Service (ADDS)

Output produced by METARs form (1050 UTC 30 August 2016)
found at http://www.aviationweather.gov/adds/metars/
 
KLNS 300953Z 00000KT 10SM CLR 18/16 A3016 RMK AO2 SLP211 T01830161
KLNS 300927Z 3009/3106 VRB03KT P6SM FEW250 
     FM301500 VRB03KT P6SM FEW050 
     FM310000 VRB02KT P6SM SCT250